Time;durP1;ratioP1;P1;durP2;ratioP2;P2;SDS_P1;SDS_P2;PMS_P1;PMS_P2;Temp;Humidity;BMP_temperature;BMP_pressure;BME280_temperature;BME280_humidity;BME280_pressure;Samples;Min_cycle;Max_cycle;Signal;HPM_P1;HPM_P2
2023/01/31 00:01:38;;;;;;;23.33;4.00;;;5.60;95.70;;;;;;5029368;28;20109;-74
2023/01/31 00:04:11;;;;;;;21.00;5.10;;;5.60;95.60;;;;;;5030424;28;20520;-75
2023/01/31 00:06:40;;;;;;;25.25;5.20;;;5.60;95.50;;;;;;5024763;28;20022;-75
2023/01/31 00:09:08;;;;;;;15.18;4.10;;;5.60;95.50;;;;;;5014928;28;20018;-74
2023/01/31 00:11:34;;;;;;;22.45;3.65;;;5.60;95.40;;;;;;5024227;28;20125;-74
2023/01/31 00:14:01;;;;;;;29.80;5.55;;;5.60;95.40;;;;;;5019279;28;20037;-75
2023/01/31 00:16:27;;;;;;;23.30;4.70;;;5.60;95.60;;;;;;5034374;28;20094;-75
2023/01/31 00:18:53;;;;;;;21.10;4.15;;;5.60;95.40;;;;;;5029054;28;20439;-74
2023/01/31 00:21:21;;;;;;;22.15;5.10;;;5.50;95.40;;;;;;5031032;28;20457;-74
2023/01/31 00:23:49;;;;;;;27.10;4.07;;;5.50;95.40;;;;;;5028336;28;20419;-76
2023/01/31 00:26:16;;;;;;;22.50;4.68;;;5.50;95.40;;;;;;5022497;28;20098;-74
2023/01/31 00:28:42;;;;;;;21.90;4.40;;;5.50;95.50;;;;;;5030928;28;20029;-75
2023/01/31 00:31:10;;;;;;;31.70;6.93;;;5.50;95.50;;;;;;5058607;28;20025;-75
2023/01/31 00:33:37;;;;;;;25.85;3.88;;;5.50;95.50;;;;;;5043338;28;20407;-73
2023/01/31 00:36:09;;;;;;;21.30;4.22;;;5.50;95.40;;;;;;5049814;28;20036;-74
2023/01/31 00:38:35;;;;;;;31.95;4.35;;;5.50;95.40;;;;;;5047625;28;20037;-74
2023/01/31 00:41:02;;;;;;;20.67;3.97;;;5.50;95.30;;;;;;5046861;28;20036;-74
2023/01/31 00:43:28;;;;;;;23.00;4.63;;;5.50;95.40;;;;;;5050038;28;20021;-74
2023/01/31 00:45:54;;;;;;;23.90;4.25;;;5.40;95.50;;;;;;5049061;28;20029;-74
2023/01/31 00:48:20;;;;;;;19.33;4.70;;;5.40;95.70;;;;;;5034177;28;20837;-74
2023/01/31 00:50:46;;;;;;;22.52;3.25;;;5.40;95.40;;;;;;5046259;28;20025;-74
2023/01/31 00:53:12;;;;;;;20.77;4.10;;;5.40;95.40;;;;;;5043851;28;20423;-75
2023/01/31 00:55:37;;;;;;;24.23;5.47;;;5.40;95.40;;;;;;5047842;28;20033;-74
2023/01/31 00:58:03;;;;;;;25.75;4.88;;;5.30;95.30;;;;;;5050336;28;20530;-75
2023/01/31 01:00:29;;;;;;;23.77;4.05;;;5.40;95.40;;;;;;5056543;28;20503;-74
2023/01/31 01:02:54;;;;;;;22.88;5.75;;;5.40;95.40;;;;;;5050538;28;20028;-74
2023/01/31 01:05:20;;;;;;;25.42;4.30;;;5.40;95.40;;;;;;5050573;28;20091;-74
2023/01/31 01:07:46;;;;;;;21.55;4.78;;;5.30;95.30;;;;;;5049999;28;20025;-73
2023/01/31 01:10:12;;;;;;;27.63;4.68;;;5.30;95.30;;;;;;5050413;28;20021;-74
2023/01/31 01:12:38;;;;;;;26.30;5.93;;;5.30;95.30;;;;;;5049701;28;20032;-74
2023/01/31 01:15:04;;;;;;;19.98;4.55;;;5.30;95.40;;;;;;5042703;28;20033;-74
2023/01/31 01:17:30;;;;;;;21.00;4.78;;;5.30;95.50;;;;;;5048508;28;20013;-75
2023/01/31 01:19:56;;;;;;;26.98;4.93;;;5.30;95.60;;;;;;5049702;28;20063;-75
2023/01/31 01:22:21;;;;;;;23.40;5.75;;;5.20;95.50;;;;;;5055720;28;20060;-74
2023/01/31 01:24:47;;;;;;;18.25;4.55;;;5.20;95.70;;;;;;5050258;28;20029;-75
2023/01/31 01:27:13;;;;;;;20.38;4.45;;;5.20;95.80;;;;;;5049728;28;20103;-74
2023/01/31 01:29:40;;;;;;;17.60;4.38;;;5.20;95.80;;;;;;5049136;28;20825;-75
2023/01/31 01:32:07;;;;;;;20.08;5.10;;;5.10;95.70;;;;;;5050476;28;20487;-74
2023/01/31 01:34:33;;;;;;;21.08;5.53;;;5.20;95.60;;;;;;5045676;28;20487;-74
2023/01/31 01:36:59;;;;;;;31.65;5.63;;;5.20;95.60;;;;;;5049289;28;20080;-75
2023/01/31 01:39:28;;;;;;;26.55;4.75;;;5.10;95.60;;;;;;5046140;28;20024;-75
2023/01/31 01:41:55;;;;;;;27.08;5.55;;;5.10;95.70;;;;;;5040996;28;20021;-75
2023/01/31 01:44:42;;;;;;;30.75;5.85;;;5.10;95.80;;;;;;5043806;28;20120;-75
2023/01/31 01:47:31;;;;;;;21.88;4.93;;;5.00;95.80;;;;;;5037192;28;20036;-74
2023/01/31 01:50:08;;;;;;;28.60;6.15;;;5.00;95.80;;;;;;5044058;28;20398;-74
2023/01/31 01:52:39;;;;;;;23.00;6.03;;;5.00;95.80;;;;;;5049939;28;20127;-74
2023/01/31 01:55:22;;;;;;;23.20;5.95;;;5.00;95.70;;;;;;5049193;28;20461;-73
2023/01/31 01:57:51;;;;;;;25.88;5.75;;;5.00;95.70;;;;;;5047513;28;20024;-73
2023/01/31 02:00:26;;;;;;;30.23;5.93;;;5.00;95.60;;;;;;5039601;28;20033;-73
2023/01/31 02:02:55;;;;;;;31.90;7.57;;;5.00;95.60;;;;;;5039264;28;20025;-74
2023/01/31 02:05:27;;;;;;;22.08;5.50;;;5.00;95.70;;;;;;5041510;28;20035;-74
2023/01/31 02:07:53;;;;;;;27.13;5.05;;;5.00;95.70;;;;;;5042426;28;20021;-73
2023/01/31 02:10:42;;;;;;;23.50;6.10;;;4.90;95.70;;;;;;5048738;28;20029;-74
2023/01/31 02:13:10;;;;;;;30.23;5.80;;;4.90;95.80;;;;;;5046026;28;20044;-73
2023/01/31 02:15:35;;;;;;;22.08;4.90;;;4.90;95.80;;;;;;5049078;28;20021;-73
2023/01/31 02:18:01;;;;;;;21.95;5.50;;;4.80;95.90;;;;;;5048360;28;20378;-73
2023/01/31 02:20:34;;;;;;;22.55;4.45;;;4.80;95.90;;;;;;5047899;28;20028;-74
2023/01/31 02:23:24;;;;;;;32.47;5.78;;;4.80;96.00;;;;;;5035357;28;20120;-75
2023/01/31 02:26:06;;;;;;;24.13;5.18;;;4.80;96.30;;;;;;5046439;28;20032;-74
2023/01/31 02:29:03;;;;;;;29.77;5.57;;;4.90;96.00;;;;;;5047994;28;20037;-74
2023/01/31 02:31:48;;;;;;;22.63;4.78;;;4.80;96.00;;;;;;5045495;28;20040;-74
2023/01/31 02:34:30;;;;;;;26.48;5.25;;;4.80;96.10;;;;;;5044125;28;20032;-75
2023/01/31 02:37:28;;;;;;;22.52;4.57;;;4.90;96.20;;;;;;5048130;28;20079;-75
2023/01/31 02:40:20;;;;;;;25.67;5.20;;;4.90;96.30;;;;;;5047704;28;20167;-75
2023/01/31 02:43:28;;;;;;;26.42;4.53;;;4.80;96.30;;;;;;5048189;28;20108;-74
2023/01/31 02:46:15;;;;;;;19.38;5.15;;;4.90;96.30;;;;;;5045518;28;20065;-75
2023/01/31 02:49:01;;;;;;;21.13;4.75;;;4.80;96.30;;;;;;5044811;28;20768;-74
2023/01/31 02:51:35;;;;;;;25.80;5.18;;;4.90;96.40;;;;;;5048777;28;20036;-74
2023/01/31 02:54:08;;;;;;;22.77;5.07;;;4.90;96.40;;;;;;5037405;28;20024;-74
2023/01/31 02:56:36;;;;;;;21.17;4.25;;;4.90;96.40;;;;;;5049736;28;20025;-75
2023/01/31 02:59:04;;;;;;;26.90;4.55;;;4.80;96.50;;;;;;5045460;28;20013;-76
2023/01/31 03:01:37;;;;;;;22.10;6.07;;;4.90;96.60;;;;;;5047529;28;20025;-75
2023/01/31 03:04:08;;;;;;;24.10;4.90;;;4.90;96.60;;;;;;5035206;28;20323;-74
2023/01/31 03:06:34;;;;;;;23.58;5.80;;;4.90;97.00;;;;;;5045439;28;20090;-75
2023/01/31 03:09:01;;;;;;;30.45;5.78;;;4.90;96.80;;;;;;5047059;28;20079;-74
2023/01/31 03:11:48;;;;;;;20.95;5.18;;;4.90;96.90;;;;;;5047565;28;20029;-75
2023/01/31 03:14:30;;;;;;;25.02;5.60;;;4.90;96.90;;;;;;5049496;28;20124;-74
2023/01/31 03:19:59;;;;;;;20.95;5.15;;;4.90;97.00;;;;;;5035523;28;20103;-74
2023/01/31 03:22:30;;;;;;;19.63;5.45;;;4.90;97.10;;;;;;5041734;28;20016;-74
2023/01/31 03:24:57;;;;;;;34.85;5.70;;;5.00;97.10;;;;;;5034271;28;20032;-75
2023/01/31 03:27:23;;;;;;;32.65;5.55;;;5.00;97.20;;;;;;5051827;28;20025;-75
2023/01/31 03:29:50;;;;;;;30.05;5.93;;;5.00;97.20;;;;;;5048555;28;20029;-74
2023/01/31 03:32:16;;;;;;;24.70;6.30;;;5.00;97.30;;;;;;5048232;28;20033;-74
2023/01/31 03:34:42;;;;;;;23.48;5.80;;;5.10;97.40;;;;;;5041408;28;20047;-74
2023/01/31 03:37:36;;;;;;;14.95;4.32;;;5.00;97.50;;;;;;5053025;28;20040;-74
2023/01/31 03:40:05;;;;;;;37.58;7.50;;;5.10;97.60;;;;;;5043050;28;20433;-73
2023/01/31 03:42:41;;;;;;;24.88;7.05;;;5.00;98.00;;;;;;5050294;28;20056;-74
2023/01/31 03:45:16;;;;;;;27.27;7.10;;;5.00;98.20;;;;;;5038312;28;20041;-74
2023/01/31 03:47:46;;;;;;;20.48;5.63;;;5.10;98.20;;;;;;5046433;28;20013;-74
2023/01/31 03:50:35;;;;;;;25.98;5.82;;;5.10;98.60;;;;;;5042589;28;20471;-74
2023/01/31 03:53:19;;;;;;;37.38;7.47;;;5.00;98.50;;;;;;5048068;28;20160;-74
2023/01/31 03:55:52;;;;;;;33.03;7.53;;;5.20;98.50;;;;;;5044437;28;20040;-74
2023/01/31 03:58:21;;;;;;;37.78;7.80;;;5.20;98.40;;;;;;5051654;28;20104;-74
2023/01/31 04:00:49;;;;;;;24.83;7.10;;;5.20;98.50;;;;;;5051494;28;20021;-74
2023/01/31 04:03:29;;;;;;;23.88;7.30;;;5.30;98.50;;;;;;5051703;28;20031;-74
2023/01/31 04:05:55;;;;;;;;;;;5.30;98.60;;;;;;5051613;28;20475;-75
2023/01/31 04:08:21;;;;;;;30.58;8.75;;;5.20;98.70;;;;;;5051535;28;19908;-74
2023/01/31 04:10:49;;;;;;;38.78;10.13;;;5.20;98.80;;;;;;5054513;28;20382;-75
2023/01/31 04:13:14;;;;;;;27.98;9.63;;;5.20;98.80;;;;;;5049648;28;20393;-74
2023/01/31 04:15:40;;;;;;;34.65;9.40;;;5.30;98.80;;;;;;5050362;28;20024;-74
2023/01/31 04:18:06;;;;;;;30.50;9.80;;;5.30;98.90;;;;;;5047237;28;20025;-74
2023/01/31 04:20:31;;;;;;;30.98;9.95;;;5.30;98.80;;;;;;5051239;28;20021;-74
2023/01/31 04:22:58;;;;;;;32.03;9.52;;;5.40;98.80;;;;;;5050580;28;20067;-74
2023/01/31 04:25:24;;;;;;;30.95;11.43;;;5.40;98.80;;;;;;5050910;28;20055;-74
2023/01/31 04:27:50;;;;;;;35.95;9.30;;;5.40;98.80;;;;;;5041463;28;20024;-75
2023/01/31 04:30:16;;;;;;;39.20;10.73;;;5.40;98.80;;;;;;5050215;28;20112;-75
2023/01/31 04:32:42;;;;;;;36.63;9.55;;;5.40;98.80;;;;;;5049094;28;20025;-75
2023/01/31 04:35:08;;;;;;;29.63;10.27;;;5.40;98.80;;;;;;5049691;28;20559;-75
2023/01/31 04:37:34;;;;;;;29.92;9.30;;;5.50;98.90;;;;;;5051445;28;20040;-75
2023/01/31 04:40:00;;;;;;;31.80;10.00;;;5.40;98.90;;;;;;5056764;28;20131;-75
2023/01/31 04:42:26;;;;;;;34.30;11.50;;;5.50;98.90;;;;;;5041369;28;20056;-74
2023/01/31 04:44:51;;;;;;;37.95;12.63;;;5.50;98.90;;;;;;5049244;28;20048;-74
2023/01/31 04:47:17;;;;;;;35.53;12.07;;;5.50;99.00;;;;;;5050471;28;20100;-74
2023/01/31 04:49:43;;;;;;;33.88;11.88;;;5.40;99.20;;;;;;5050910;28;20028;-74
2023/01/31 04:52:09;;;;;;;37.58;13.98;;;5.40;99.20;;;;;;5039274;28;20029;-74
2023/01/31 04:54:35;;;;;;;45.30;14.32;;;5.40;99.30;;;;;;5052157;28;20041;-74
2023/01/31 04:57:01;;;;;;;42.17;12.90;;;5.50;99.30;;;;;;5049137;28;20028;-73
2023/01/31 04:59:27;;;;;;;48.13;14.07;;;5.50;99.40;;;;;;5049544;28;20480;-75
2023/01/31 05:01:53;;;;;;;45.10;14.38;;;5.50;99.30;;;;;;5048172;28;20033;-74
2023/01/31 05:04:19;;;;;;;44.20;12.45;;;5.50;99.40;;;;;;5050101;28;20033;-74
2023/01/31 05:06:44;;;;;;;38.58;14.48;;;5.50;99.40;;;;;;5056660;28;20077;-74
2023/01/31 05:09:11;;;;;;;43.40;13.98;;;5.50;99.40;;;;;;5049909;28;20111;-74
2023/01/31 05:11:37;;;;;;;36.13;10.88;;;5.50;99.50;;;;;;5048805;28;20050;-74
2023/01/31 05:14:02;;;;;;;31.52;11.43;;;5.50;99.60;;;;;;5050209;28;20139;-75
2023/01/31 05:16:28;;;;;;;37.25;13.05;;;5.50;99.60;;;;;;5049408;28;20021;-75
2023/01/31 05:18:54;;;;;;;43.00;13.48;;;5.50;99.60;;;;;;5048345;28;20576;-75
2023/01/31 05:21:19;;;;;;;38.53;14.27;;;5.50;99.60;;;;;;5050300;28;20032;-74
2023/01/31 05:23:45;;;;;;;35.83;13.55;;;5.40;99.60;;;;;;5043872;28;20021;-74
2023/01/31 05:26:11;;;;;;;34.70;13.07;;;5.50;99.70;;;;;;5049829;28;20079;-75
2023/01/31 05:28:36;;;;;;;32.28;12.25;;;5.50;99.70;;;;;;5043305;28;20394;-75
2023/01/31 05:31:04;;;;;;;45.30;13.25;;;5.50;99.60;;;;;;5049611;28;20017;-74
2023/01/31 05:33:33;;;;;;;45.63;14.98;;;5.50;99.70;;;;;;5047149;28;20111;-75
2023/01/31 05:36:00;;;;;;;32.33;11.98;;;5.50;99.70;;;;;;5048791;28;20033;-75
2023/01/31 05:38:27;;;;;;;42.35;14.05;;;5.40;99.90;;;;;;5046691;28;20029;-74
2023/01/31 05:40:52;;;;;;;42.60;17.40;;;5.40;99.90;;;;;;5045328;28;20024;-75
2023/01/31 05:43:18;;;;;;;41.72;14.95;;;5.50;99.90;;;;;;5048864;28;20040;-75
2023/01/31 05:45:44;;;;;;;32.35;14.27;;;5.50;99.90;;;;;;5047575;28;20024;-74
2023/01/31 05:48:10;;;;;;;40.95;15.70;;;5.50;99.90;;;;;;5049604;28;20044;-76
2023/01/31 05:50:36;;;;;;;53.70;14.55;;;5.50;99.90;;;;;;5049309;28;20364;-75
2023/01/31 05:53:02;;;;;;;37.53;13.43;;;5.50;99.90;;;;;;5048836;28;20039;-74
2023/01/31 05:55:28;;;;;;;37.80;14.13;;;5.50;99.90;;;;;;5048606;28;20028;-74
2023/01/31 05:57:54;;;;;;;44.33;15.52;;;5.50;99.90;;;;;;5048823;28;20395;-74
2023/01/31 06:00:21;;;;;;;46.33;16.65;;;5.50;99.90;;;;;;5048883;28;20029;-74
2023/01/31 06:02:47;;;;;;;34.75;13.65;;;5.50;99.90;;;;;;5048559;28;20024;-74
2023/01/31 06:05:13;;;;;;;45.17;15.25;;;5.60;99.90;;;;;;5043535;28;20032;-74
2023/01/31 06:07:39;;;;;;;49.80;16.60;;;5.50;99.90;;;;;;5047247;28;20438;-73
2023/01/31 06:10:07;;;;;;;38.38;12.65;;;5.50;99.90;;;;;;5049600;28;20017;-74
2023/01/31 06:12:33;;;;;;;45.63;16.50;;;5.60;99.90;;;;;;5050086;28;20019;-74
2023/01/31 06:14:59;;;;;;;37.50;12.88;;;5.50;99.90;;;;;;5043268;28;20072;-74
2023/01/31 06:17:25;;;;;;;41.00;14.45;;;5.60;99.90;;;;;;5048247;28;20428;-74
2023/01/31 06:19:51;;;;;;;48.08;14.50;;;5.60;99.90;;;;;;5049441;28;20032;-74
2023/01/31 06:22:17;;;;;;;44.03;14.77;;;5.70;99.90;;;;;;5049565;28;20104;-75
2023/01/31 06:24:43;;;;;;;40.80;14.52;;;5.70;99.90;;;;;;5044220;28;20566;-74
2023/01/31 06:27:09;;;;;;;35.92;13.00;;;5.80;99.90;;;;;;5048270;28;20056;-74
2023/01/31 06:29:34;;;;;;;35.20;13.68;;;5.80;99.90;;;;;;5048228;28;20024;-74
2023/01/31 06:32:00;;;;;;;43.75;14.98;;;5.80;99.90;;;;;;5048996;28;20021;-72
2023/01/31 06:34:25;;;;;;;44.17;14.73;;;5.90;99.90;;;;;;5053876;28;20461;-73
2023/01/31 06:36:51;;;;;;;32.25;13.45;;;5.80;99.90;;;;;;5058073;28;20021;-73
2023/01/31 06:39:17;;;;;;;50.10;16.85;;;5.80;99.90;;;;;;5052815;28;20418;-75
2023/01/31 06:41:43;;;;;;;50.05;16.67;;;5.80;99.90;;;;;;5059279;28;20017;-73
2023/01/31 06:44:08;;;;;;;41.97;15.80;;;5.80;99.90;;;;;;5047533;28;20375;-74
2023/01/31 06:46:34;;;;;;;45.38;18.80;;;5.80;99.90;;;;;;5049983;28;20087;-74
2023/01/31 06:49:00;;;;;;;34.58;12.90;;;5.80;99.90;;;;;;5044169;28;20025;-74
2023/01/31 06:51:25;;;;;;;42.30;18.00;;;5.80;99.90;;;;;;5055968;28;20545;-73
2023/01/31 06:53:51;;;;;;;41.53;15.25;;;5.90;99.90;;;;;;5045887;28;20029;-74
2023/01/31 06:56:18;;;;;;;34.92;13.27;;;5.90;99.90;;;;;;5046261;28;20025;-73
2023/01/31 06:58:43;;;;;;;32.80;12.80;;;5.90;99.90;;;;;;5048845;28;20491;-73
2023/01/31 07:01:12;;;;;;;36.67;12.73;;;5.90;99.90;;;;;;5045163;28;20056;-74
2023/01/31 07:03:38;;;;;;;40.42;12.50;;;5.80;99.90;;;;;;5057808;28;20036;-74
2023/01/31 07:06:05;;;;;;;35.05;13.88;;;5.90;99.90;;;;;;5054115;28;20568;-75
2023/01/31 07:08:31;;;;;;;36.30;12.27;;;5.90;99.90;;;;;;5054780;28;20566;-74
2023/01/31 07:10:57;;;;;;;38.33;12.88;;;5.90;99.90;;;;;;5050587;28;20033;-74
2023/01/31 07:13:23;;;;;;;34.35;12.98;;;5.90;99.90;;;;;;5058211;28;20065;-74
2023/01/31 07:15:49;;;;;;;32.22;12.75;;;5.90;99.90;;;;;;5056334;28;20025;-74
2023/01/31 07:18:15;;;;;;;41.50;14.27;;;6.00;99.80;;;;;;5054494;28;20021;-74
2023/01/31 07:20:41;;;;;;;38.45;13.23;;;6.10;99.70;;;;;;5052554;28;20029;-74
2023/01/31 07:23:07;;;;;;;41.17;13.30;;;6.00;99.60;;;;;;5058160;28;20025;-74
2023/01/31 07:25:34;;;;;;;32.95;13.52;;;6.10;99.60;;;;;;5052633;28;20068;-74
2023/01/31 07:28:01;;;;;;;31.33;11.98;;;5.90;99.70;;;;;;5050282;28;20025;-75
2023/01/31 07:30:28;;;;;;;28.27;13.13;;;6.00;99.60;;;;;;5045360;28;20105;-74
2023/01/31 07:32:53;;;;;;;48.20;15.30;;;6.00;99.70;;;;;;5051488;28;20062;-76
2023/01/31 07:35:20;;;;;;;32.92;12.35;;;6.00;99.50;;;;;;5046722;28;20092;-74
2023/01/31 07:37:46;;;;;;;39.95;13.98;;;6.10;99.60;;;;;;5046096;28;20044;-74
2023/01/31 07:40:14;;;;;;;31.77;12.77;;;6.10;99.40;;;;;;5050574;28;20094;-73
2023/01/31 07:42:40;;;;;;;29.48;11.82;;;6.10;99.40;;;;;;5046962;28;20542;-75
2023/01/31 07:45:08;;;;;;;37.35;12.68;;;6.20;99.30;;;;;;5046931;28;20028;-74
2023/01/31 07:47:33;;;;;;;34.85;15.45;;;6.10;99.40;;;;;;5032359;28;20025;-73
2023/01/31 07:49:59;;;;;;;34.92;12.98;;;6.10;99.50;;;;;;5044546;28;20102;-72
2023/01/31 07:52:25;;;;;;;35.35;12.50;;;6.00;99.40;;;;;;5046653;28;20041;-73
2023/01/31 07:54:50;;;;;;;31.55;12.45;;;6.00;99.40;;;;;;5040772;28;20037;-73
2023/01/31 07:57:16;;;;;;;36.17;11.55;;;6.00;99.40;;;;;;5046936;28;20033;-70
2023/01/31 07:59:45;;;;;;;39.63;12.02;;;6.10;99.40;;;;;;5047821;28;20017;-70
2023/01/31 08:04:57;;;;;;;27.38;10.30;;;6.20;99.10;;;;;;5042168;28;20068;-71
2023/01/31 08:07:23;;;;;;;35.28;12.93;;;6.20;99.00;;;;;;5048167;28;20048;-72
2023/01/31 08:09:49;;;;;;;34.47;12.38;;;6.20;98.90;;;;;;5031177;28;20494;-71
2023/01/31 08:12:15;;;;;;;33.35;11.57;;;6.20;98.80;;;;;;5048182;28;20020;-71
2023/01/31 08:14:41;;;;;;;32.78;11.35;;;6.20;98.80;;;;;;5058662;28;20025;-71
2023/01/31 08:17:07;;;;;;;25.30;10.68;;;6.30;98.70;;;;;;5039693;28;20025;-71
2023/01/31 08:19:33;;;;;;;24.58;9.70;;;6.30;98.70;;;;;;5048975;28;20021;-72
2023/01/31 08:22:00;;;;;;;18.65;8.23;;;6.30;98.60;;;;;;5047256;28;20017;-71
2023/01/31 08:24:25;;;;;;;36.35;10.65;;;6.30;98.60;;;;;;5047739;28;20025;-72
2023/01/31 08:26:51;;;;;;;25.45;8.18;;;6.30;98.50;;;;;;5047265;28;20402;-71
2023/01/31 08:29:17;;;;;;;27.05;10.13;;;6.30;98.50;;;;;;5047438;28;20021;-72
2023/01/31 08:31:46;;;;;;;32.45;10.18;;;6.30;98.40;;;;;;5045887;28;20108;-73
2023/01/31 08:34:12;;;;;;;23.70;8.63;;;6.30;98.30;;;;;;5046048;28;20041;-73
2023/01/31 08:36:37;;;;;;;30.70;10.35;;;6.30;98.40;;;;;;5048557;28;20029;-73
2023/01/31 08:39:04;;;;;;;19.92;8.55;;;6.40;98.40;;;;;;5049441;28;20438;-72
2023/01/31 08:41:31;;;;;;;30.33;9.75;;;6.40;98.30;;;;;;5048800;28;20055;-73
2023/01/31 08:43:58;;;;;;;29.10;10.13;;;6.40;98.30;;;;;;5033319;28;20501;-72
2023/01/31 08:46:26;;;;;;;27.67;9.15;;;6.40;98.20;;;;;;5042807;28;20053;-72
2023/01/31 08:48:51;;;;;;;25.77;9.32;;;6.40;98.20;;;;;;5049643;28;20083;-72
2023/01/31 08:51:17;;;;;;;27.25;8.63;;;6.40;98.10;;;;;;5050728;28;20710;-73
2023/01/31 08:53:43;;;;;;;26.02;9.38;;;6.40;98.10;;;;;;5050372;28;20559;-72
2023/01/31 08:56:10;;;;;;;27.15;9.27;;;6.50;98.10;;;;;;5049460;28;20136;-73
2023/01/31 08:58:38;;;;;;;25.73;8.98;;;6.50;98.10;;;;;;5050621;28;20567;-72
2023/01/31 09:01:06;;;;;;;25.10;9.18;;;6.50;98.00;;;;;;5049656;28;20098;-73
2023/01/31 09:03:32;;;;;;;21.70;8.10;;;6.50;98.00;;;;;;5050797;28;20479;-72
2023/01/31 09:05:59;;;;;;;27.75;11.55;;;6.60;98.00;;;;;;5047825;28;20036;-72
2023/01/31 09:08:25;;;;;;;26.60;9.73;;;6.60;98.00;;;;;;5046701;28;20025;-73
2023/01/31 09:10:54;;;;;;;25.58;9.77;;;6.60;97.90;;;;;;5040947;28;20075;-73
2023/01/31 09:13:20;;;;;;;23.23;7.65;;;6.60;97.90;;;;;;5045601;28;20553;-73
2023/01/31 09:15:45;;;;;;;24.40;8.10;;;6.70;97.90;;;;;;5051828;28;20024;-73
2023/01/31 09:18:11;;;;;;;21.33;7.65;;;6.70;97.90;;;;;;5051467;28;20024;-72
2023/01/31 09:20:36;;;;;;;28.20;8.52;;;6.70;97.90;;;;;;5051917;28;20108;-72
2023/01/31 09:23:02;;;;;;;26.20;7.63;;;6.70;98.10;;;;;;5045951;28;20028;-72
2023/01/31 09:25:28;;;;;;;23.67;8.40;;;6.70;97.80;;;;;;5049576;28;20049;-73
2023/01/31 09:27:54;;;;;;;24.00;6.75;;;6.70;97.80;;;;;;5048766;28;20017;-73
2023/01/31 09:30:20;;;;;;;26.02;9.10;;;6.70;97.80;;;;;;5051581;28;20029;-72
2023/01/31 09:32:46;;;;;;;30.02;11.00;;;6.70;97.80;;;;;;5049511;28;20108;-72
2023/01/31 09:35:12;;;;;;;28.60;9.45;;;6.70;97.80;;;;;;5048355;28;20112;-73
2023/01/31 09:37:38;;;;;;;25.58;9.50;;;6.80;97.80;;;;;;5048262;28;20017;-74
2023/01/31 09:40:09;;;;;;;26.17;7.72;;;6.70;97.70;;;;;;5050076;28;20601;-72
2023/01/31 09:42:42;;;;;;;21.85;8.43;;;6.70;97.80;;;;;;5061065;28;20072;-70
2023/01/31 09:45:33;;;;;;;26.92;9.40;;;6.70;97.80;;;;;;5050552;28;20036;-73
2023/01/31 09:48:00;;;;;;;23.25;7.78;;;6.70;97.80;;;;;;5051895;28;20033;-73
2023/01/31 09:50:41;;;;;;;22.98;7.35;;;6.80;97.80;;;;;;5045300;28;20126;-72
2023/01/31 09:53:12;;;;;;;25.17;8.85;;;6.70;97.80;;;;;;5049486;28;20028;-72
2023/01/31 09:56:04;;;;;;;24.38;8.18;;;6.80;97.90;;;;;;5049357;28;20020;-71
2023/01/31 09:58:46;;;;;;;28.75;8.43;;;6.80;97.90;;;;;;5041514;28;20037;-72
2023/01/31 10:01:14;;;;;;;30.63;7.80;;;6.80;98.00;;;;;;5049486;28;20017;-72
2023/01/31 10:03:40;;;;;;;23.98;8.20;;;6.80;98.00;;;;;;5042336;28;20054;-72
2023/01/31 10:06:31;;;;;;;26.45;8.48;;;6.90;98.00;;;;;;5048749;28;20375;-72
2023/01/31 10:09:12;;;;;;;27.88;6.75;;;6.90;97.90;;;;;;5049144;28;20032;-71
2023/01/31 10:12:04;;;;;;;25.50;7.30;;;6.90;98.00;;;;;;5041715;28;20028;-72
2023/01/31 10:14:35;;;;;;;31.35;8.90;;;7.00;98.00;;;;;;5049582;28;20115;-72
2023/01/31 10:17:16;;;;;;;27.92;7.85;;;7.00;98.10;;;;;;5053348;28;20090;-74
2023/01/31 10:19:45;;;;;;;27.38;8.52;;;7.00;98.10;;;;;;5038211;28;20029;-71
2023/01/31 10:22:37;;;;;;;16.83;5.60;;;7.00;98.20;;;;;;5049609;28;20024;-72
2023/01/31 10:25:19;;;;;;;23.90;7.13;;;7.10;98.20;;;;;;5048690;28;20079;-73
2023/01/31 10:28:00;;;;;;;17.73;6.78;;;7.20;98.20;;;;;;5047164;28;20086;-72
2023/01/31 10:30:45;;;;;;;24.83;6.25;;;7.30;98.10;;;;;;5049204;28;20898;-71
2023/01/31 10:33:23;;;;;;;22.67;6.85;;;7.30;98.10;;;;;;5048068;28;20016;-73
2023/01/31 10:35:52;;;;;;;21.88;6.88;;;7.30;98.00;;;;;;5049064;28;20025;-71
2023/01/31 10:38:27;;;;;;;14.17;5.93;;;7.40;97.90;;;;;;5049534;28;20498;-72
2023/01/31 10:41:05;;;;;;;25.08;8.35;;;7.30;97.90;;;;;;5048870;28;20287;-72
2023/01/31 10:43:38;;;;;;;23.45;6.55;;;7.40;98.00;;;;;;5048133;28;20052;-72
2023/01/31 10:46:12;;;;;;;23.75;7.07;;;7.40;98.00;;;;;;5046562;28;20098;-73
2023/01/31 10:48:41;;;;;;;26.58;7.85;;;7.40;98.10;;;;;;5039744;28;20097;-73
2023/01/31 10:51:17;;;;;;;20.63;7.68;;;7.40;98.10;;;;;;5044466;28;20021;-72
2023/01/31 10:53:57;;;;;;;24.40;7.38;;;7.40;98.10;;;;;;5044335;28;20947;-71
2023/01/31 10:56:35;;;;;;;27.27;7.70;;;7.40;98.00;;;;;;5042117;28;20028;-72
2023/01/31 10:59:06;;;;;;;20.60;8.00;;;7.50;97.90;;;;;;5046266;28;20025;-72
2023/01/31 11:01:34;;;;;;;19.02;6.32;;;7.50;97.90;;;;;;5048007;28;20021;-73
2023/01/31 11:04:00;;;;;;;22.42;8.35;;;7.50;98.00;;;;;;5040852;28;20017;-72
2023/01/31 11:06:26;;;;;;;25.15;8.10;;;7.60;98.00;;;;;;5049787;28;20025;-72
2023/01/31 11:08:56;;;;;;;31.52;8.82;;;7.60;98.00;;;;;;5041912;28;20025;-72
2023/01/31 11:11:24;;;;;;;26.23;8.50;;;7.60;98.00;;;;;;5043960;28;20021;-73
2023/01/31 11:14:15;;;;;;;33.20;10.55;;;7.70;98.00;;;;;;5047274;28;20041;-73
2023/01/31 11:16:40;;;;;;;19.55;7.80;;;7.70;98.00;;;;;;5058055;28;20029;-73
2023/01/31 11:19:45;;;;;;;23.33;9.52;;;7.70;98.30;;;;;;5047576;28;20029;-73
2023/01/31 11:22:36;;;;;;;24.38;8.90;;;7.80;97.90;;;;;;5046921;28;20029;-71
2023/01/31 11:25:03;;;;;;;23.88;8.90;;;7.80;97.90;;;;;;5040305;28;20041;-70
2023/01/31 11:27:41;;;;;;;29.38;11.60;;;7.80;98.10;;;;;;5039613;28;20705;-73
2023/01/31 11:30:22;;;;;;;21.02;7.30;;;7.80;98.00;;;;;;5047073;28;20099;-72
2023/01/31 11:32:48;;;;;;;21.13;9.23;;;7.80;98.00;;;;;;5041348;28;20025;-73
2023/01/31 11:35:13;;;;;;;38.85;11.00;;;7.80;98.00;;;;;;5042756;28;20033;-72
2023/01/31 11:37:56;;;;;;;26.98;9.80;;;7.90;98.00;;;;;;5047122;28;20033;-73
2023/01/31 11:40:33;;;;;;;23.60;8.43;;;7.90;98.00;;;;;;5047040;28;20079;-72
2023/01/31 11:43:03;;;;;;;27.98;10.57;;;7.90;98.00;;;;;;5045770;28;20449;-72
2023/01/31 11:45:43;;;;;;;29.95;11.25;;;8.00;98.00;;;;;;5045585;28;20486;-73
2023/01/31 11:48:16;;;;;;;25.13;8.15;;;8.00;98.10;;;;;;5046377;28;20061;-72
2023/01/31 11:50:44;;;;;;;20.42;10.35;;;8.00;98.10;;;;;;5049828;28;20031;-72
2023/01/31 11:53:19;;;;;;;19.60;7.38;;;8.00;98.20;;;;;;5049978;28;20021;-72
2023/01/31 11:55:47;;;;;;;22.50;9.00;;;8.00;98.40;;;;;;5042662;28;20119;-72
2023/01/31 11:58:29;;;;;;;18.10;7.40;;;8.10;98.20;;;;;;5049229;28;20052;-72
2023/01/31 12:00:58;;;;;;;23.70;10.02;;;8.10;98.10;;;;;;5045523;28;20051;-72
2023/01/31 12:03:25;;;;;;;20.35;7.25;;;8.10;98.50;;;;;;5060081;28;20060;-72
2023/01/31 12:06:03;;;;;;;24.90;7.72;;;8.10;98.50;;;;;;5048883;28;20033;-72
2023/01/31 12:08:40;;;;;;;20.55;8.00;;;8.10;98.70;;;;;;5049167;28;20025;-73
2023/01/31 12:11:30;;;;;;;26.98;7.53;;;8.10;99.00;;;;;;5049638;28;20028;-72
2023/01/31 12:14:13;;;;;;;19.35;7.07;;;8.10;99.10;;;;;;5049007;28;20029;-71
2023/01/31 12:16:39;;;;;;;21.58;7.85;;;8.10;99.30;;;;;;5057886;28;20032;-71
2023/01/31 12:19:10;;;;;;;21.17;7.72;;;8.10;99.60;;;;;;5044380;28;20013;-73
2023/01/31 12:22:06;;;;;;;15.45;6.32;;;8.10;99.90;;;;;;5049521;28;20032;-72
2023/01/31 12:24:32;;;;;;;20.42;7.13;;;8.10;99.90;;;;;;5048526;28;20762;-72
2023/01/31 12:27:28;;;;;;;24.45;12.45;;;8.10;99.90;;;;;;5054098;28;20103;-73
2023/01/31 12:30:28;;;;;;;22.45;7.53;;;8.10;99.90;;;;;;5049788;28;20100;-72
2023/01/31 12:33:15;;;;;;;20.40;7.10;;;8.10;99.90;;;;;;5057551;28;20784;-72
2023/01/31 12:35:50;;;;;;;14.98;5.75;;;8.20;99.90;;;;;;5040963;28;20382;-72
2023/01/31 12:38:40;;;;;;;16.95;7.95;;;8.20;99.90;;;;;;5050286;28;20104;-73
2023/01/31 12:41:23;;;;;;;15.93;8.27;;;8.20;99.90;;;;;;5049576;28;20025;-71
2023/01/31 12:44:05;;;;;;;18.98;8.35;;;8.10;99.90;;;;;;5049767;28;20033;-71
2023/01/31 12:46:33;;;;;;;15.35;6.68;;;8.10;99.90;;;;;;5048814;28;20086;-72
2023/01/31 12:49:21;;;;;;;21.33;8.88;;;8.10;99.90;;;;;;5047025;28;20033;-74
2023/01/31 12:51:58;;;;;;;18.23;7.20;;;8.10;99.90;;;;;;5050119;28;20036;-72
2023/01/31 12:54:50;;;;;;;24.92;9.52;;;8.10;99.90;;;;;;5037828;28;20029;-73
2023/01/31 12:57:34;;;;;;;14.38;6.50;;;8.20;99.90;;;;;;5047493;28;20028;-72
2023/01/31 13:00:34;;;;;;;17.40;7.18;;;8.20;99.90;;;;;;5049997;28;20079;-72
2023/01/31 13:03:18;;;;;;;13.52;5.55;;;8.20;99.90;;;;;;5050121;28;20033;-72
2023/01/31 13:05:59;;;;;;;20.75;7.55;;;8.20;99.90;;;;;;5043503;28;20027;-72
2023/01/31 13:08:28;;;;;;;21.05;8.88;;;8.30;99.90;;;;;;5049960;28;20033;-72